Pendleton, OR

11:00 PM PDT on September 19, 2014 (GMT -0700)
Meacham | Change Station
CLOSE
Current Station
Airport
Location: Meacham,
Elevation: 3720 ft
Nearby Weather Stations

Elev 3720 ft 45.51 °N, 118.42 °W | Updated 4 minutes ago

Clear
Clear
47 °F
Feels Like 47 °F
N
0
Wind Variable Wind from North

Today
High -- | Low -- °F
--% Chance of Precip.
Yesterday
High -- | Low -- °F
Precip. -- in
6:38 AM 6:58 PM
Waning Crescent, 14% visible
Pressure 30.14 in
Visibility 10.0 miles
Clouds Clear
Dew Point 41 °F
Humidity 80%
Rainfall 0.00 in
Snow Depth 0 in , 1 in , 0 in
UV 0 out of 12
Pollen 5.40 out of 12
Air Quality Not available.
Flu Activity Not available.
METAR KMEH 200556Z AUTO 00000KT 10SM CLR 08/05 A3016 RMK AO2 SLP204 T00830050 10222 20083 53009

More Conditions Fewer Conditions

Pressure 30.14 in
Visibility 10.0 miles
Clouds Clear
Dew Point 41 °F
Humidity 80%
Rainfall 0.00 in
Snow Depth 0 in , 1 in , 0 in
UV 0 out of 12
Pollen 5.40 out of 12
Air Quality Not available.
Flu Activity Not available.
METAR KMEH 200556Z AUTO 00000KT 10SM CLR 08/05 A3016 RMK AO2 SLP204 T00830050 10222 20083 53009

More Conditions Fewer Conditions

10-Day Weather Forecast

Almanac

Astronomy

Sep. 19, 2014 Rise Set
Actual Time 6:38 AM PDT 6:58 PM PDT
Civil Twilight 6:08 AM PDT 7:27 PM PDT
Nautical Twilight 5:33 AM PDT 8:02 PM PDT
Astronomical Twilight 4:57 AM PDT 8:38 PM PDT
Moon 2:17 AM PDT (9/19) 4:38 PM PDT (9/19)
Length of Visible Light 13h 19m
Length of Day
12h 19m
Tomorrow will be 3m 10s shorter.
Waning Crescent, 14% of the Moon is Illuminated
Sep 20
Waning Crescent
Sep 24
New
Oct 1
First Quarter
Oct 8
Full
Oct 15
Last Quarter

Yesterday's Extremes

State Highs State Lows

Community

WunderPhotos

Upload Photos

1,754,777 photos uploaded!

WunderBlogs® & News

Nearby

Snow Depth

Station Depth Elevation
Mckenzie 0 in 4800 ft
Diamond Lake 1 in 5315 ft
Holland Meadows 0 in 4900 ft
Annie Springs 0 in 6020 ft
Peavine Ridge 0 in 3500 ft

Earthquake Activity

City Distance Mag. Time & Date
No recent earthquake activity has been reported nearby.
Minimum magnitude displayed is 2.5.

Coastal Water Temperatures

Place Temperature
No Stations Reporting

Nearby Weather Stations